createdAt,value
2019-01-24T00:00:39.257Z,88.46
2019-01-24T00:01:39.227Z,88.08
2019-01-24T00:02:39.181Z,87.79
2019-01-24T00:03:39.135Z,87.89
2019-01-24T00:04:39.111Z,87.61
2019-01-24T00:05:39.055Z,88.08
2019-01-24T00:06:39.015Z,88.27
2019-01-24T00:07:38.972Z,88.65
2019-01-24T00:08:38.936Z,88.27
2019-01-24T00:09:38.903Z,88.65
2019-01-24T00:10:38.857Z,87.70
2019-01-24T00:11:38.817Z,87.89
2019-01-24T00:12:38.774Z,87.89
2019-01-24T00:13:38.731Z,88.36
2019-01-24T00:14:38.690Z,88.17
2019-01-24T00:15:38.646Z,88.46
2019-01-24T00:16:38.617Z,88.65
2019-01-24T00:17:38.569Z,88.46
2019-01-24T00:18:38.536Z,88.36
2019-01-24T00:19:38.484Z,88.27
2019-01-24T00:20:38.451Z,87.98
2019-01-24T00:21:38.406Z,88.65
2019-01-24T00:22:38.364Z,88.27
2019-01-24T00:23:38.341Z,88.08
2019-01-24T00:24:38.282Z,88.65
2019-01-24T00:25:38.240Z,88.84
2019-01-24T00:26:38.204Z,88.46
2019-01-24T00:27:38.167Z,87.98
2019-01-24T00:28:38.122Z,88.17
2019-01-24T00:29:38.081Z,88.36
2019-01-24T00:30:38.046Z,88.08
2019-01-24T00:31:38.006Z,88.08
2019-01-24T00:32:37.962Z,88.27
2019-01-24T00:33:37.914Z,88.08
2019-01-24T00:34:37.879Z,88.55
2019-01-24T00:35:37.837Z,88.08
2019-01-24T00:36:37.804Z,87.98
2019-01-24T00:37:37.764Z,87.98
2019-01-24T00:38:37.719Z,88.36
2019-01-24T00:39:37.686Z,88.36
2019-01-24T00:40:37.633Z,87.89
2019-01-24T00:41:37.610Z,88.51
2019-01-24T00:42:37.563Z,88.32
2019-01-24T00:43:37.513Z,88.60
2019-01-24T00:44:37.478Z,88.42
2019-01-24T00:45:37.433Z,88.27
2019-01-24T00:46:37.393Z,88.65
2019-01-24T00:47:37.350Z,88.84
2019-01-24T00:48:37.313Z,88.65
2019-01-24T00:49:37.263Z,88.55
2019-01-24T00:50:37.233Z,87.98
2019-01-24T00:51:37.189Z,88.36
2019-01-24T00:52:37.149Z,88.46
2019-01-24T00:53:37.105Z,88.36
2019-01-24T00:54:37.075Z,88.36
2019-01-24T00:55:37.044Z,88.36
2019-01-24T00:56:36.983Z,88.65
2019-01-24T00:57:36.946Z,88.74
2019-01-24T00:58:36.908Z,88.46
2019-01-24T00:59:36.868Z,88.08
2019-01-24T01:00:36.823Z,88.27
2019-01-24T01:01:36.782Z,89.22
2019-01-24T01:02:36.746Z,88.32
2019-01-24T01:03:36.703Z,88.23
2019-01-24T01:04:36.664Z,88.60
2019-01-24T01:05:36.620Z,88.32
2019-01-24T01:06:36.579Z,88.65
2019-01-24T01:07:36.534Z,88.08
2019-01-24T01:08:36.503Z,88.74
2019-01-24T01:09:36.458Z,88.46
2019-01-24T01:10:36.410Z,88.27
2019-01-24T01:11:36.380Z,88.74
2019-01-24T01:12:36.343Z,88.23
2019-01-24T01:13:36.293Z,88.65
2019-01-24T01:14:36.254Z,88.84
2019-01-24T01:15:36.214Z,88.65
2019-01-24T01:16:36.169Z,88.55
2019-01-24T01:17:36.134Z,88.46
2019-01-24T01:18:36.099Z,89.12
2019-01-24T01:19:36.062Z,88.55
2019-01-24T01:20:36.014Z,88.74
2019-01-24T01:21:35.969Z,87.89
2019-01-24T01:22:35.935Z,88.36
2019-01-24T01:23:35.882Z,88.84
2019-01-24T01:24:35.847Z,88.65
2019-01-24T01:25:35.812Z,88.46
2019-01-24T01:26:35.766Z,88.84
2019-01-24T01:27:35.727Z,88.08
2019-01-24T01:28:35.686Z,88.46
2019-01-24T01:29:35.643Z,87.94
2019-01-24T01:30:35.609Z,88.51
2019-01-24T01:31:35.570Z,88.70
2019-01-24T01:32:44.167Z,88.42
2019-01-24T01:34:39.926Z,88.55
2019-01-24T01:35:39.863Z,88.79
2019-01-24T01:36:39.822Z,88.13
2019-01-24T01:37:39.782Z,88.23
2019-01-24T01:38:39.728Z,88.60
2019-01-24T01:39:39.686Z,88.60
2019-01-24T01:40:39.658Z,88.42
2019-01-24T01:41:39.618Z,88.42
2019-01-24T01:42:39.618Z,88.42
2019-01-24T01:43:39.543Z,89.07
2019-01-24T01:44:39.509Z,88.60
2019-01-24T01:45:39.453Z,88.42
2019-01-24T01:46:39.426Z,88.51
2019-01-24T01:47:39.375Z,88.51
2019-01-24T01:48:39.326Z,88.98
2019-01-24T01:49:39.295Z,88.74
2019-01-24T01:50:39.256Z,88.74
2019-01-24T01:51:39.211Z,88.51
2019-01-24T01:52:39.167Z,89.07
2019-01-24T01:53:39.137Z,88.32
2019-01-24T01:54:39.081Z,88.51
2019-01-24T01:55:39.047Z,88.32
2019-01-24T01:56:39.006Z,88.84
2019-01-24T01:57:38.962Z,88.55
2019-01-24T01:58:38.933Z,88.65
2019-01-24T01:59:38.878Z,88.27
2019-01-24T02:00:38.838Z,88.84
2019-01-24T02:01:38.807Z,88.65
2019-01-24T02:02:38.767Z,88.65
2019-01-24T02:03:38.718Z,89.12
2019-01-24T02:04:42.855Z,89.31
2019-01-24T02:05:38.628Z,88.74
2019-01-24T02:06:38.597Z,88.46
2019-01-24T02:07:38.563Z,88.55
2019-01-24T02:08:38.512Z,88.55
2019-01-24T02:09:38.478Z,88.42
2019-01-24T02:10:38.433Z,89.03
2019-01-24T02:11:38.393Z,88.65
2019-01-24T02:12:38.358Z,88.55
2019-01-24T02:13:38.309Z,89.12
2019-01-24T02:14:38.271Z,88.55
2019-01-24T02:15:38.233Z,88.46
2019-01-24T02:16:38.198Z,88.08
2019-01-24T02:17:38.154Z,88.55
2019-01-24T02:18:38.119Z,89.40
2019-01-24T02:19:38.075Z,89.12
2019-01-24T02:20:38.024Z,88.55
2019-01-24T02:21:37.994Z,88.36
2019-01-24T02:22:37.953Z,88.65
2019-01-24T02:23:37.904Z,88.74
2019-01-24T02:24:37.865Z,88.36
2019-01-24T02:25:37.834Z,88.84
2019-01-24T02:26:37.783Z,89.22
2019-01-24T02:27:37.747Z,88.74
2019-01-24T02:28:37.704Z,88.70
2019-01-24T02:29:37.663Z,88.65
2019-01-24T02:30:37.621Z,89.03
2019-01-24T02:31:37.584Z,89.03
2019-01-24T02:32:37.540Z,88.79
2019-01-24T02:33:37.509Z,88.32
2019-01-24T02:34:37.459Z,88.79
2019-01-24T02:35:37.424Z,88.65
2019-01-24T02:36:37.383Z,89.31
2019-01-24T02:37:37.349Z,89.26
2019-01-24T02:38:37.303Z,88.55
2019-01-24T02:39:37.260Z,88.84
2019-01-24T02:40:37.220Z,88.84
2019-01-24T02:41:37.175Z,89.50
2019-01-24T02:42:37.131Z,89.31
2019-01-24T02:43:37.116Z,88.93
2019-01-24T02:44:37.051Z,88.55
2019-01-24T02:45:37.016Z,89.40
2019-01-24T02:46:36.988Z,89.50
2019-01-24T02:47:36.935Z,89.22
2019-01-24T02:48:36.899Z,89.12
2019-01-24T02:49:36.862Z,88.55
2019-01-24T02:50:36.808Z,88.84
2019-01-24T02:51:36.771Z,88.46
2019-01-24T02:52:36.727Z,88.23
2019-01-24T02:53:36.685Z,88.89
2019-01-24T02:54:36.660Z,88.89
2019-01-24T02:55:36.601Z,88.65
2019-01-24T02:56:36.568Z,89.03
2019-01-24T02:57:36.532Z,89.59
2019-01-24T02:58:36.489Z,89.12
2019-01-24T02:59:36.434Z,88.42
2019-01-24T03:00:36.406Z,88.60
2019-01-24T03:01:36.374Z,88.51
2019-01-24T03:02:36.320Z,88.93
2019-01-24T03:03:36.285Z,89.17
2019-01-24T03:04:36.239Z,88.84
2019-01-24T03:05:36.196Z,88.65
2019-01-24T03:06:36.164Z,89.31
2019-01-24T03:07:36.131Z,89.07
2019-01-24T03:08:36.079Z,88.60
2019-01-24T03:09:36.054Z,88.89
2019-01-24T03:10:36.004Z,89.26
2019-01-24T03:11:35.962Z,88.79
2019-01-24T03:12:35.920Z,88.60
2019-01-24T03:13:35.892Z,88.79
2019-01-24T03:14:35.835Z,88.60
2019-01-24T03:15:35.792Z,89.07
2019-01-24T03:16:35.757Z,89.17
2019-01-24T03:17:35.714Z,88.60
2019-01-24T03:18:35.670Z,88.70
2019-01-24T03:19:35.630Z,89.17
2019-01-24T03:20:35.581Z,89.17
2019-01-24T03:21:35.552Z,88.70
2019-01-24T03:22:35.515Z,89.36
2019-01-24T03:23:35.466Z,88.79
2019-01-24T03:24:35.426Z,88.51
2019-01-24T03:25:35.391Z,88.60
2019-01-24T03:26:35.337Z,88.60
2019-01-24T03:27:43.962Z,88.98
2019-01-24T03:29:39.720Z,89.17
2019-01-24T03:30:39.647Z,88.98
2019-01-24T03:31:39.607Z,89.26
2019-01-24T03:32:39.579Z,89.26
2019-01-24T03:33:39.521Z,89.26
2019-01-24T03:34:39.482Z,89.26
2019-01-24T03:35:39.436Z,88.98
2019-01-24T03:36:39.392Z,89.26
2019-01-24T03:37:39.357Z,89.26
2019-01-24T03:38:39.333Z,89.17
2019-01-24T03:39:39.280Z,89.17
2019-01-24T03:40:39.238Z,89.17
2019-01-24T03:41:39.192Z,88.98
2019-01-24T03:42:39.147Z,89.17
2019-01-24T03:43:39.120Z,88.98
2019-01-24T03:44:39.082Z,88.79
2019-01-24T03:45:39.046Z,89.26
2019-01-24T03:46:38.987Z,88.89
2019-01-24T03:47:38.952Z,88.98
2019-01-24T03:48:38.912Z,88.51
2019-01-24T03:49:38.867Z,88.79
2019-01-24T03:50:38.829Z,88.79
2019-01-24T03:51:38.798Z,88.42
2019-01-24T03:52:38.747Z,88.51
2019-01-24T03:53:38.703Z,88.60
2019-01-24T03:54:38.673Z,89.50
2019-01-24T03:55:38.623Z,89.45
2019-01-24T03:56:38.583Z,88.98
2019-01-24T03:57:38.535Z,89.54
2019-01-24T03:58:38.498Z,88.89
2019-01-24T03:59:38.465Z,88.70
2019-01-24T04:00:38.418Z,88.32
2019-01-24T04:01:38.376Z,88.98
2019-01-24T04:02:38.348Z,88.98
2019-01-24T04:03:38.301Z,88.70
2019-01-24T04:04:38.265Z,88.51
2019-01-24T04:05:38.217Z,89.07
2019-01-24T04:06:38.178Z,89.07
2019-01-24T04:07:38.133Z,88.51
2019-01-24T04:08:38.108Z,88.89
2019-01-24T04:09:38.058Z,88.89
2019-01-24T04:10:38.012Z,89.36
2019-01-24T04:11:37.967Z,89.26
2019-01-24T04:12:37.934Z,88.70
2019-01-24T04:13:37.885Z,88.51
2019-01-24T04:14:37.850Z,88.60
2019-01-24T04:15:37.812Z,89.17
2019-01-24T04:16:37.777Z,88.79
2019-01-24T04:17:37.728Z,89.45
2019-01-24T04:18:37.690Z,88.98
2019-01-24T04:19:37.647Z,89.26
2019-01-24T04:20:37.610Z,89.45
2019-01-24T04:21:37.560Z,88.98
2019-01-24T04:22:37.518Z,88.89
2019-01-24T04:23:37.489Z,89.36
2019-01-24T04:24:37.447Z,88.51
2019-01-24T04:25:37.405Z,89.07
2019-01-24T04:26:37.370Z,89.17
2019-01-24T04:27:37.314Z,89.07
2019-01-24T04:28:37.282Z,89.17
2019-01-24T04:29:37.231Z,88.70
2019-01-24T04:30:37.188Z,89.07
2019-01-24T04:31:37.159Z,89.36
2019-01-24T04:32:37.111Z,88.70
2019-01-24T04:33:37.078Z,89.07
2019-01-24T04:34:37.029Z,89.26
2019-01-24T04:35:36.980Z,88.60
2019-01-24T04:36:36.946Z,88.70
2019-01-24T04:37:36.909Z,89.26
2019-01-24T04:38:36.875Z,89.36
2019-01-24T04:39:36.835Z,88.79
2019-01-24T04:40:36.790Z,88.98
2019-01-24T04:41:36.748Z,89.17
2019-01-24T04:42:36.696Z,88.51
2019-01-24T04:43:36.669Z,88.98
2019-01-24T04:44:36.634Z,89.17
2019-01-24T04:45:36.588Z,89.07
2019-01-24T04:46:36.546Z,88.98
2019-01-24T04:47:36.507Z,88.98
2019-01-24T04:48:36.461Z,88.98
2019-01-24T04:49:36.416Z,88.60
2019-01-24T04:50:36.376Z,89.45
2019-01-24T04:51:36.336Z,89.36
2019-01-24T04:52:36.292Z,88.79
2019-01-24T04:53:36.300Z,89.26
2019-01-24T04:56:15.584Z,88.98
2019-01-24T04:57:15.519Z,89.26
2019-01-24T04:58:15.480Z,89.17
2019-01-24T04:59:15.441Z,89.17
2019-01-24T05:00:15.410Z,89.17
2019-01-24T05:01:15.369Z,88.89
2019-01-24T05:02:15.313Z,89.17
2019-01-24T05:03:16.194Z,88.98
2019-01-24T05:04:15.231Z,88.98
2019-01-24T05:05:15.201Z,88.98
2019-01-24T05:06:15.141Z,88.89
2019-01-24T05:07:15.113Z,89.36
2019-01-24T05:08:15.077Z,89.07
2019-01-24T05:09:15.037Z,89.17
2019-01-24T05:10:14.980Z,89.73
2019-01-24T05:11:14.937Z,89.36
2019-01-24T05:12:14.908Z,89.26
2019-01-24T05:13:14.863Z,89.07
2019-01-24T05:14:14.822Z,89.54
2019-01-24T05:15:14.783Z,88.98
2019-01-24T05:16:14.735Z,89.17
2019-01-24T05:17:14.715Z,89.54
2019-01-24T05:18:14.662Z,89.17
2019-01-24T05:19:14.620Z,88.70
2019-01-24T05:20:14.578Z,89.26
2019-01-24T05:21:14.533Z,89.36
2019-01-24T05:22:14.501Z,89.26
2019-01-24T05:23:23.649Z,89.54
2019-01-24T05:25:07.821Z,89.26
2019-01-24T05:26:07.751Z,88.98
2019-01-24T05:27:07.702Z,88.98
2019-01-24T05:28:07.660Z,89.07
2019-01-24T05:29:07.621Z,89.17
2019-01-24T05:30:07.581Z,88.79
2019-01-24T05:31:07.536Z,89.45
2019-01-24T05:32:07.494Z,89.26
2019-01-24T05:33:07.458Z,89.45
2019-01-24T05:34:07.417Z,89.17
2019-01-24T05:35:07.376Z,89.45
2019-01-24T05:36:07.337Z,89.17
2019-01-24T05:37:07.293Z,89.17
2019-01-24T05:38:07.243Z,88.98
2019-01-24T05:39:07.206Z,89.26
2019-01-24T05:40:07.169Z,89.17
2019-01-24T05:41:07.123Z,89.45
2019-01-24T05:42:07.087Z,89.07
2019-01-24T05:43:07.074Z,89.17
2019-01-24T05:44:07.011Z,89.26
2019-01-24T05:45:06.972Z,89.07
2019-01-24T05:46:06.919Z,89.36
2019-01-24T05:47:06.888Z,89.36
2019-01-24T05:48:06.839Z,89.26
2019-01-24T05:49:06.804Z,88.42
2019-01-24T05:50:06.760Z,89.07
2019-01-24T05:51:06.725Z,89.54
2019-01-24T05:52:06.671Z,89.26
2019-01-24T05:53:06.637Z,89.07
2019-01-24T05:54:06.593Z,89.45
2019-01-24T05:55:06.552Z,89.07
2019-01-24T05:56:06.528Z,88.98
2019-01-24T05:57:06.476Z,88.70
2019-01-24T05:58:06.442Z,89.26
2019-01-24T05:59:06.377Z,89.17
2019-01-24T06:00:06.344Z,89.54
2019-01-24T06:01:06.308Z,89.07
2019-01-24T06:02:06.262Z,89.45
2019-01-24T06:03:06.219Z,89.17
2019-01-24T06:04:06.184Z,88.98
2019-01-24T06:05:06.148Z,89.36
2019-01-24T06:06:06.109Z,89.54
2019-01-24T06:07:06.054Z,89.54
2019-01-24T06:08:06.025Z,89.45
2019-01-24T06:09:05.983Z,89.26
2019-01-24T06:10:05.939Z,89.07
2019-01-24T06:11:05.905Z,89.17
2019-01-24T06:12:05.853Z,89.26
2019-01-24T06:13:05.812Z,89.83
2019-01-24T06:14:05.805Z,89.07
2019-01-24T06:15:05.727Z,89.07
2019-01-24T06:16:05.689Z,89.26
2019-01-24T06:17:05.645Z,89.26
2019-01-24T06:18:05.608Z,89.07
2019-01-24T06:19:05.569Z,89.45
2019-01-24T06:20:05.525Z,89.17
2019-01-24T06:21:05.488Z,89.45
2019-01-24T06:22:05.447Z,89.26
2019-01-24T06:23:05.417Z,89.07
2019-01-24T06:24:05.369Z,89.07
2019-01-24T06:25:05.326Z,89.07
2019-01-24T06:26:05.275Z,89.07
2019-01-24T06:27:05.238Z,89.45
2019-01-24T06:28:05.191Z,89.45
2019-01-24T06:29:05.155Z,89.45
2019-01-24T06:30:05.115Z,89.17
2019-01-24T06:31:05.070Z,89.45
2019-01-24T06:32:05.035Z,89.45
2019-01-24T06:33:04.991Z,89.36
2019-01-24T06:34:04.959Z,89.36
2019-01-24T06:35:04.911Z,89.07
2019-01-24T06:36:04.869Z,89.54
2019-01-24T06:37:04.840Z,89.26
2019-01-24T06:38:04.789Z,88.98
2019-01-24T06:39:04.742Z,89.54
2019-01-24T06:40:04.702Z,89.45
2019-01-24T06:41:04.666Z,89.45
2019-01-24T06:42:04.625Z,89.92
2019-01-24T06:43:04.582Z,89.26
2019-01-24T06:44:04.539Z,88.89
2019-01-24T06:45:04.506Z,89.26
2019-01-24T06:46:04.462Z,89.26
2019-01-24T06:47:04.427Z,89.07
2019-01-24T06:48:04.385Z,89.36
2019-01-24T06:49:04.336Z,89.54
2019-01-24T06:50:04.291Z,89.26
2019-01-24T06:51:04.252Z,89.54
2019-01-24T06:52:04.216Z,88.98
2019-01-24T06:53:04.162Z,89.45
2019-01-24T06:54:04.134Z,89.45
2019-01-24T06:55:04.107Z,89.36
2019-01-24T06:56:04.052Z,89.26
2019-01-24T06:57:04.002Z,89.07
2019-01-24T06:58:03.963Z,89.07
2019-01-24T06:59:03.923Z,89.07
2019-01-24T07:00:03.885Z,89.26
2019-01-24T07:01:03.846Z,89.54
2019-01-24T07:02:03.803Z,89.26
2019-01-24T07:03:03.758Z,89.17
2019-01-24T07:04:03.725Z,89.17
2019-01-24T07:05:03.676Z,89.17
2019-01-24T07:06:03.637Z,88.98
2019-01-24T07:07:03.594Z,89.07
2019-01-24T07:08:03.558Z,89.26
2019-01-24T07:09:03.510Z,89.54
2019-01-24T07:10:03.469Z,89.26
2019-01-24T07:11:03.432Z,89.64
2019-01-24T07:12:03.401Z,88.98
2019-01-24T07:13:03.969Z,88.98
2019-01-24T07:14:03.306Z,89.36
2019-01-24T07:15:03.266Z,89.26
2019-01-24T07:16:03.237Z,89.54
2019-01-24T07:17:03.189Z,89.36
2019-01-24T07:18:03.144Z,88.98
2019-01-24T07:19:03.098Z,89.36
2019-01-24T07:20:03.062Z,89.36
2019-01-24T07:21:03.022Z,89.26
2019-01-24T07:22:02.978Z,89.26
2019-01-24T07:23:02.942Z,89.17
2019-01-24T07:24:02.897Z,89.36
2019-01-24T07:25:02.889Z,89.17
2019-01-24T07:26:02.827Z,89.17
2019-01-24T07:27:02.778Z,89.36
2019-01-24T07:28:02.728Z,89.36
2019-01-24T07:29:02.693Z,89.07
2019-01-24T07:30:02.639Z,89.17
2019-01-24T07:31:02.609Z,89.07
2019-01-24T07:32:02.572Z,89.17
2019-01-24T07:33:02.525Z,89.36
2019-01-24T07:34:02.478Z,89.12
2019-01-24T07:35:02.435Z,89.07
2019-01-24T07:36:02.516Z,89.64
2019-01-24T07:37:02.363Z,89.73
2019-01-24T07:38:02.324Z,89.17
2019-01-24T07:39:02.287Z,89.36
2019-01-24T07:40:02.237Z,89.73
2019-01-24T07:41:02.195Z,88.98
2019-01-24T07:42:02.159Z,88.98
2019-01-24T07:43:02.123Z,88.98
2019-01-24T07:44:02.070Z,89.17
2019-01-24T07:45:02.057Z,89.36
2019-01-24T07:46:01.984Z,89.17
2019-01-24T07:47:01.950Z,89.54
2019-01-24T07:48:01.910Z,89.45
2019-01-24T07:49:01.866Z,89.17
2019-01-24T07:50:01.820Z,89.54
2019-01-24T07:51:01.784Z,89.54
2019-01-24T07:52:01.744Z,89.26
2019-01-24T07:53:01.709Z,89.36
2019-01-24T07:54:01.659Z,89.07
2019-01-24T07:55:01.620Z,89.36
2019-01-24T07:56:01.586Z,89.26
2019-01-24T07:57:01.533Z,89.17
2019-01-24T07:58:01.495Z,89.45
2019-01-24T07:59:01.451Z,89.36
2019-01-24T08:00:01.411Z,89.07
2019-01-24T08:01:01.375Z,89.17
2019-01-24T08:02:01.326Z,89.54
2019-01-24T08:03:01.292Z,89.17
2019-01-24T08:04:01.243Z,89.54
2019-01-24T08:05:01.214Z,89.17
2019-01-24T08:06:01.170Z,89.45
2019-01-24T08:07:01.126Z,88.98
2019-01-24T08:08:01.084Z,89.36
2019-01-24T08:09:01.032Z,89.64
2019-01-24T08:10:01.007Z,89.64
2019-01-24T08:11:00.965Z,89.17
2019-01-24T08:12:00.924Z,89.22
2019-01-24T08:13:00.875Z,89.36
2019-01-24T08:14:00.835Z,89.17
2019-01-24T08:15:00.798Z,89.22
2019-01-24T08:16:00.757Z,89.12
2019-01-24T08:17:00.716Z,89.50
2019-01-24T08:18:00.667Z,89.50
2019-01-24T08:19:00.627Z,89.22
2019-01-24T08:20:00.582Z,89.50
2019-01-24T08:21:00.542Z,88.93
2019-01-24T08:22:00.506Z,89.12
2019-01-24T08:23:00.463Z,88.93
2019-01-24T08:24:00.425Z,89.07
2019-01-24T08:25:00.370Z,89.50
2019-01-24T08:26:00.340Z,89.54
2019-01-24T08:27:00.296Z,89.22
2019-01-24T08:28:00.252Z,89.36
2019-01-24T08:29:00.213Z,89.17
2019-01-24T08:30:00.248Z,89.54
2019-01-24T08:31:00.141Z,89.36
2019-01-24T08:32:00.087Z,89.54
2019-01-24T08:33:00.053Z,89.07
2019-01-24T08:34:00.012Z,89.17
2019-01-24T08:34:59.972Z,89.26
2019-01-24T08:35:59.932Z,89.83
2019-01-24T08:36:59.887Z,89.07
2019-01-24T08:37:59.851Z,89.07
2019-01-24T08:38:59.802Z,89.17
2019-01-24T08:39:59.779Z,88.98
2019-01-24T08:40:59.718Z,89.36
2019-01-24T08:41:59.681Z,89.31
2019-01-24T08:42:59.638Z,88.93
2019-01-24T08:43:59.592Z,89.12
2019-01-24T08:44:59.567Z,88.84
2019-01-24T08:45:59.523Z,88.75
2019-01-24T08:46:59.473Z,88.75
2019-01-24T08:47:59.433Z,89.12
2019-01-24T08:48:59.391Z,89.22
2019-01-24T08:49:59.345Z,89.12
2019-01-24T08:50:59.296Z,88.75
2019-01-24T08:51:59.268Z,89.50
2019-01-24T08:52:59.227Z,89.03
2019-01-24T08:53:59.183Z,88.84
2019-01-24T08:54:59.138Z,89.12
2019-01-24T08:55:59.098Z,88.75
2019-01-24T08:56:59.058Z,89.40
2019-01-24T08:57:59.024Z,89.03
2019-01-24T08:58:58.974Z,89.12
2019-01-24T08:59:58.933Z,89.50
2019-01-24T09:00:58.894Z,89.31
2019-01-24T09:01:58.863Z,89.36
2019-01-24T09:02:58.806Z,89.03
2019-01-24T09:03:58.763Z,89.03
2019-01-24T09:04:58.733Z,89.31
2019-01-24T09:05:58.691Z,89.83
2019-01-24T09:06:58.649Z,89.64
2019-01-24T09:07:58.602Z,89.54
2019-01-24T09:08:58.567Z,89.03
2019-01-24T09:09:59.189Z,89.78
2019-01-24T09:10:58.492Z,88.93
2019-01-24T09:11:58.443Z,88.84
2019-01-24T09:12:58.402Z,89.64
2019-01-24T09:13:58.370Z,89.54
2019-01-24T09:14:58.317Z,89.54
2019-01-24T09:15:58.287Z,88.37
2019-01-24T09:16:58.232Z,89.03
2019-01-24T09:17:58.188Z,89.78
2019-01-24T09:18:58.153Z,89.17
2019-01-24T09:19:58.113Z,89.40
2019-01-24T09:20:58.078Z,89.17
2019-01-24T09:21:58.034Z,89.22
2019-01-24T09:22:57.984Z,89.17
2019-01-24T09:23:57.949Z,89.54
2019-01-24T09:24:57.905Z,89.64
2019-01-24T09:25:57.863Z,89.45
2019-01-24T09:26:57.828Z,89.17
2019-01-24T09:27:57.799Z,89.36
2019-01-24T09:28:57.740Z,89.36
2019-01-24T09:29:57.702Z,89.54
2019-01-24T09:30:57.658Z,90.11
2019-01-24T09:31:57.613Z,89.83
2019-01-24T09:32:57.573Z,89.45
2019-01-24T09:33:57.538Z,90.11
2019-01-24T09:34:57.488Z,89.36
2019-01-24T09:35:57.460Z,89.17
2019-01-24T09:36:57.411Z,88.98
2019-01-24T09:37:57.375Z,88.79
2019-01-24T09:38:57.333Z,89.92
2019-01-24T09:39:57.294Z,89.64
2019-01-24T09:40:57.249Z,89.36
2019-01-24T09:41:57.214Z,89.64
2019-01-24T09:42:57.166Z,89.54
2019-01-24T09:43:57.130Z,89.26
2019-01-24T09:44:57.081Z,89.17
2019-01-24T09:45:57.039Z,90.40
2019-01-24T09:46:57.004Z,89.45
2019-01-24T09:47:56.966Z,89.36
2019-01-24T09:48:56.923Z,89.83
2019-01-24T09:49:56.882Z,89.73
2019-01-24T09:50:56.841Z,88.60
2019-01-24T09:51:56.806Z,89.07
2019-01-24T09:52:56.774Z,89.50
2019-01-24T09:53:56.732Z,90.25
2019-01-24T09:54:56.675Z,89.50
2019-01-24T09:55:56.641Z,89.64
2019-01-24T09:56:56.611Z,89.36
2019-01-24T09:57:56.557Z,89.17
2019-01-24T09:58:56.535Z,88.60
2019-01-24T09:59:56.475Z,89.92
2019-01-24T10:00:56.426Z,89.64
2019-01-24T10:01:56.395Z,89.40
2019-01-24T10:02:56.350Z,89.31
2019-01-24T10:03:56.312Z,89.78
2019-01-24T10:04:56.267Z,90.16
2019-01-24T10:05:56.237Z,89.69
2019-01-24T10:06:56.187Z,90.35
2019-01-24T10:07:56.152Z,89.87
2019-01-24T10:08:56.115Z,88.27
2019-01-24T10:09:56.071Z,89.50
2019-01-24T10:10:56.045Z,89.22
2019-01-24T10:11:55.998Z,89.22
2019-01-24T10:12:55.951Z,88.74
2019-01-24T10:13:55.912Z,89.50
2019-01-24T10:14:55.857Z,89.69
2019-01-24T10:15:55.828Z,89.22
2019-01-24T10:16:55.786Z,88.55
2019-01-24T10:17:55.743Z,88.74
2019-01-24T10:18:55.762Z,89.59
2019-01-24T10:19:55.682Z,89.69
2019-01-24T10:20:55.635Z,89.40
2019-01-24T10:21:55.613Z,89.31
2019-01-24T10:22:55.571Z,89.59
2019-01-24T10:23:55.539Z,88.65
2019-01-24T10:24:55.476Z,88.46
2019-01-24T10:25:55.439Z,89.03
2019-01-24T10:26:55.383Z,89.31
2019-01-24T10:27:55.341Z,88.74
2019-01-24T10:28:55.301Z,89.31
2019-01-24T10:29:55.274Z,89.69
2019-01-24T10:30:55.223Z,88.93
2019-01-24T10:31:55.188Z,89.40
2019-01-24T10:32:55.143Z,89.50
2019-01-24T10:33:55.101Z,88.27
2019-01-24T10:34:55.064Z,88.74
2019-01-24T10:35:55.024Z,88.74
2019-01-24T10:36:54.987Z,88.36
2019-01-24T10:37:54.941Z,89.31
2019-01-24T10:38:54.908Z,89.59
2019-01-24T10:39:54.871Z,89.50
2019-01-24T10:40:55.511Z,89.50
2019-01-24T10:41:54.783Z,89.22
2019-01-24T10:42:54.739Z,88.36
2019-01-24T10:43:54.709Z,88.55
2019-01-24T10:44:54.662Z,89.07
2019-01-24T10:45:54.617Z,89.12
2019-01-24T10:46:54.587Z,88.41
2019-01-24T10:47:54.552Z,88.50
2019-01-24T10:48:54.509Z,88.27
2019-01-24T10:49:54.477Z,87.42
2019-01-24T10:50:54.437Z,87.79
2019-01-24T10:51:54.393Z,88.08
2019-01-24T10:52:54.359Z,87.23
2019-01-24T10:53:54.309Z,87.79
2019-01-24T10:54:54.268Z,88.08
2019-01-24T10:55:54.236Z,88.74
2019-01-24T10:56:54.215Z,88.55
2019-01-24T10:57:54.155Z,88.22
2019-01-24T10:58:54.114Z,88.12
2019-01-24T10:59:54.075Z,87.93
2019-01-24T11:00:54.028Z,87.74
2019-01-24T11:01:53.990Z,87.65
2019-01-24T11:02:53.949Z,87.46
2019-01-24T11:03:53.930Z,86.71
2019-01-24T11:04:53.880Z,87.32
2019-01-24T11:05:53.838Z,86.85
2019-01-24T11:06:53.828Z,87.42
2019-01-24T11:07:53.752Z,87.61
2019-01-24T11:08:53.718Z,88.17
2019-01-24T11:09:53.683Z,87.70
2019-01-24T11:10:53.636Z,88.17
2019-01-24T11:11:53.596Z,87.89
2019-01-24T11:12:53.559Z,87.42
2019-01-24T11:13:53.531Z,87.04
2019-01-24T11:14:53.496Z,87.61
2019-01-24T11:15:53.475Z,87.89
2019-01-24T11:16:53.404Z,87.98
2019-01-24T11:17:53.355Z,88.65
2019-01-24T11:18:53.344Z,87.70
2019-01-24T11:19:53.292Z,87.13
2019-01-24T11:20:53.230Z,87.61
2019-01-24T11:21:53.203Z,87.51
2019-01-24T11:22:53.206Z,87.79
2019-01-24T11:23:53.122Z,87.98
2019-01-24T11:24:53.081Z,88.08
2019-01-24T11:25:53.052Z,87.89
2019-01-24T11:26:52.996Z,88.08
2019-01-24T11:27:52.971Z,89.22
2019-01-24T11:28:52.939Z,89.31
2019-01-24T11:29:52.885Z,88.17
2019-01-24T11:30:52.841Z,88.36
2019-01-24T11:31:52.805Z,87.42
2019-01-24T11:32:52.818Z,88.36
2019-01-24T11:33:52.726Z,88.36
2019-01-24T11:34:52.682Z,87.89
2019-01-24T11:35:52.654Z,88.08
2019-01-24T11:36:56.976Z,87.89
2019-01-24T11:37:52.572Z,88.27
2019-01-24T11:38:52.544Z,88.36
2019-01-24T11:39:52.490Z,88.36
2019-01-24T11:40:52.441Z,88.17
2019-01-24T11:41:52.400Z,88.17
2019-01-24T11:42:52.357Z,88.08
2019-01-24T11:43:52.324Z,89.03
2019-01-24T11:44:52.281Z,88.36
2019-01-24T11:45:52.246Z,87.89
2019-01-24T11:46:52.200Z,88.55
2019-01-24T11:47:52.160Z,88.17
2019-01-24T11:48:52.117Z,87.37
2019-01-24T11:49:52.086Z,88.65
2019-01-24T11:50:52.040Z,88.65
2019-01-24T11:51:51.995Z,88.17
2019-01-24T11:52:51.962Z,88.55
2019-01-24T11:53:53.129Z,87.79
2019-01-24T11:54:51.878Z,88.13
2019-01-24T11:55:51.855Z,87.94
2019-01-24T11:56:51.802Z,87.89
2019-01-24T11:57:51.760Z,88.36
2019-01-24T11:58:51.747Z,88.27
2019-01-24T11:59:51.683Z,88.08
2019-01-24T12:00:51.630Z,87.79
2019-01-24T12:01:51.601Z,88.27
2019-01-24T12:02:51.557Z,87.89
2019-01-24T12:03:51.508Z,87.61
2019-01-24T12:04:51.475Z,87.51
2019-01-24T12:05:51.430Z,88.65
2019-01-24T12:06:51.391Z,88.08
2019-01-24T12:07:51.387Z,87.89
2019-01-24T12:08:51.308Z,87.70
2019-01-24T12:09:51.286Z,87.32
2019-01-24T12:10:51.240Z,87.51
2019-01-24T12:11:51.205Z,86.76
2019-01-24T12:12:51.153Z,86.19
2019-01-24T12:13:51.114Z,86.29
2019-01-24T12:14:51.096Z,86.94
2019-01-24T12:15:51.036Z,87.42
2019-01-24T12:16:51.003Z,87.42
2019-01-24T12:17:50.958Z,87.70
2019-01-24T12:18:50.924Z,87.79
2019-01-24T12:19:50.891Z,87.42
2019-01-24T12:20:50.838Z,87.61
2019-01-24T12:21:50.795Z,87.51
2019-01-24T12:22:50.784Z,87.61
2019-01-24T12:23:50.718Z,88.36
2019-01-24T12:24:50.677Z,87.42
2019-01-24T12:25:50.639Z,88.36
2019-01-24T12:26:50.601Z,87.70
2019-01-24T12:27:50.595Z,87.51
2019-01-24T12:28:50.527Z,87.98
2019-01-24T12:29:50.479Z,88.08
2019-01-24T12:30:50.442Z,87.61
2019-01-24T12:31:50.392Z,87.61
2019-01-24T12:32:50.358Z,86.94
2019-01-24T12:33:50.309Z,88.08
2019-01-24T12:34:50.273Z,88.04
2019-01-24T12:35:50.246Z,88.36
2019-01-24T12:36:50.203Z,87.70
2019-01-24T12:37:50.149Z,88.27
2019-01-24T12:38:50.112Z,88.08
2019-01-24T12:39:50.085Z,88.17
2019-01-24T12:40:50.028Z,88.74
2019-01-24T12:41:49.998Z,88.93
2019-01-24T12:42:49.954Z,87.61
2019-01-24T12:43:49.915Z,88.17
2019-01-24T12:44:49.892Z,88.55
2019-01-24T12:45:49.852Z,88.74
2019-01-24T12:46:49.788Z,88.08
2019-01-24T12:47:49.754Z,88.27
2019-01-24T12:48:49.723Z,88.46
2019-01-24T12:49:49.669Z,88.36
2019-01-24T12:50:49.641Z,88.36
2019-01-24T12:51:49.592Z,88.65
2019-01-24T12:52:49.549Z,88.65
2019-01-24T12:53:49.541Z,88.65
2019-01-24T12:54:49.471Z,88.17
2019-01-24T12:55:49.441Z,88.08
2019-01-24T12:56:49.400Z,88.17